Time;durP1;ratioP1;P1;durP2;ratioP2;P2;SDS_P1;SDS_P2;PMS_P1;PMS_P2;Temp;Humidity;BMP_temperature;BMP_pressure;BME280_temperature;BME280_humidity;BME280_pressure;Samples;Min_cycle;Max_cycle;Signal;HPM_P1;HPM_P2
2024/04/07 00:01:31;;;;;;;9.38;8.20;;;15.00;95.10;;;;;;5044108;28;20104;-76
2024/04/07 00:03:58;;;;;;;11.48;8.45;;;14.90;97.40;;;;;;5041695;28;20021;-76
2024/04/07 00:06:24;;;;;;;9.73;8.13;;;14.90;98.70;;;;;;5044011;28;20075;-76
2024/04/07 00:08:50;;;;;;;11.20;7.57;;;14.90;97.60;;;;;;5042161;28;20035;-76
2024/04/07 00:11:16;;;;;;;12.55;8.52;;;14.90;98.60;;;;;;5043110;28;20112;-76
2024/04/07 00:13:42;;;;;;;12.35;8.93;;;14.80;99.10;;;;;;5041528;28;20056;-75
2024/04/07 00:16:08;;;;;;;15.43;8.50;;;14.80;97.30;;;;;;5042643;28;20591;-76
2024/04/07 00:18:34;;;;;;;14.70;9.23;;;14.90;99.20;;;;;;5039052;28;20116;-76
2024/04/07 00:21:03;;;;;;;16.50;10.05;;;14.90;98.60;;;;;;5041933;28;20048;-76
2024/04/07 00:23:31;;;;;;;14.52;8.60;;;14.90;98.30;;;;;;5043124;28;20053;-76
2024/04/07 00:25:56;;;;;;;16.58;9.05;;;14.80;99.90;;;;;;5040516;28;20025;-76
2024/04/07 00:28:23;;;;;;;14.88;9.60;;;14.70;99.90;;;;;;5043575;28;20028;-76
2024/04/07 00:30:49;;;;;;;14.35;8.95;;;14.70;99.90;;;;;;5040761;28;20033;-76
2024/04/07 00:33:15;;;;;;;13.45;10.25;;;14.70;99.90;;;;;;5039352;28;20032;-76
2024/04/07 00:35:52;;;;;;;12.43;10.07;;;14.60;99.90;;;;;;5055969;28;20087;-76
2024/04/07 00:38:18;;;;;;;15.07;9.93;;;14.60;99.90;;;;;;5046276;28;20033;-76
2024/04/07 00:40:43;;;;;;;13.70;10.15;;;14.60;99.90;;;;;;5041854;28;20036;-76
2024/04/07 00:43:09;;;;;;;16.27;10.25;;;14.60;99.90;;;;;;5040923;28;20021;-76
2024/04/07 00:45:35;;;;;;;18.75;9.77;;;14.60;99.90;;;;;;5042888;28;20472;-76
2024/04/07 00:48:01;;;;;;;14.68;9.63;;;14.60;99.90;;;;;;5041992;28;20105;-76
2024/04/07 00:50:27;;;;;;;14.57;10.65;;;14.60;99.90;;;;;;5043710;28;20033;-76
2024/04/07 00:52:54;;;;;;;13.32;10.20;;;14.60;99.90;;;;;;5040669;28;20108;-76
2024/04/07 00:55:20;;;;;;;14.27;10.02;;;14.60;99.90;;;;;;5043181;28;20020;-76
2024/04/07 00:57:47;;;;;;;14.15;10.02;;;14.60;99.90;;;;;;5058653;28;20040;-76
2024/04/07 01:00:12;;;;;;;14.13;9.75;;;14.60;99.90;;;;;;5064445;28;20391;-76
2024/04/07 01:02:38;;;;;;;14.00;9.88;;;14.60;99.90;;;;;;5081562;28;20023;-76
2024/04/07 01:05:04;;;;;;;12.15;9.27;;;14.60;99.90;;;;;;5081875;28;20502;-76
2024/04/07 01:07:31;;;;;;;12.65;9.80;;;14.60;99.90;;;;;;5081975;28;20035;-76
2024/04/07 01:09:58;;;;;;;14.15;9.23;;;14.60;99.90;;;;;;5081226;28;20055;-76
2024/04/07 01:12:24;;;;;;;13.57;9.65;;;14.60;99.90;;;;;;5082399;28;20032;-76
2024/04/07 01:14:50;;;;;;;11.70;9.90;;;14.50;99.90;;;;;;5062643;28;20020;-76
2024/04/07 01:17:16;;;;;;;19.02;10.52;;;14.50;99.90;;;;;;5068200;28;20028;-76
2024/04/07 01:19:42;;;;;;;12.45;9.90;;;14.50;99.90;;;;;;5078401;28;20024;-76
2024/04/07 01:22:08;;;;;;;15.57;9.90;;;14.50;99.90;;;;;;5079700;28;20016;-76
2024/04/07 01:24:33;;;;;;;12.85;10.43;;;14.50;99.90;;;;;;5065433;28;20155;-76
2024/04/07 01:26:59;;;;;;;21.98;9.45;;;14.50;99.90;;;;;;5079781;28;20013;-76
2024/04/07 01:29:25;;;;;;;13.82;10.32;;;14.60;99.90;;;;;;5075873;28;20101;-76
2024/04/07 01:31:51;;;;;;;15.00;10.25;;;14.60;99.90;;;;;;5069517;28;20150;-75
2024/04/07 01:34:17;;;;;;;16.27;9.55;;;14.60;99.90;;;;;;5080561;28;20115;-76
2024/04/07 01:36:44;;;;;;;13.77;9.63;;;14.50;99.90;;;;;;5081175;28;20021;-76
2024/04/07 01:39:10;;;;;;;13.52;10.63;;;14.50;99.90;;;;;;5064328;28;20170;-76
2024/04/07 01:41:35;;;;;;;12.05;9.40;;;14.50;99.90;;;;;;5083136;28;20095;-76
2024/04/07 01:44:01;;;;;;;15.65;10.13;;;14.50;99.90;;;;;;5083256;28;20479;-76
2024/04/07 01:46:26;;;;;;;15.05;9.32;;;14.50;99.90;;;;;;5083079;28;20039;-76
2024/04/07 01:48:52;;;;;;;16.75;9.35;;;14.40;99.90;;;;;;5083100;28;20031;-76
2024/04/07 01:51:18;;;;;;;20.27;9.48;;;14.40;99.90;;;;;;5082884;28;20039;-76
2024/04/07 01:53:44;;;;;;;19.98;9.40;;;14.40;99.90;;;;;;5079479;28;20442;-76
2024/04/07 01:56:09;;;;;;;14.50;8.85;;;14.40;99.90;;;;;;5082794;28;20034;-76
2024/04/07 01:58:37;;;;;;;12.52;9.20;;;14.40;99.90;;;;;;5079729;28;20048;-77
2024/04/07 02:01:04;;;;;;;13.13;9.70;;;14.40;99.90;;;;;;5064169;28;20031;-77
2024/04/07 02:03:30;;;;;;;17.70;10.00;;;14.40;99.90;;;;;;5080271;28;20021;-77
2024/04/07 02:05:55;;;;;;;15.02;9.73;;;14.40;99.90;;;;;;5081751;28;20028;-77
2024/04/07 02:08:21;;;;;;;15.02;9.90;;;14.30;99.90;;;;;;5062750;28;20051;-77
2024/04/07 02:10:51;;;;;;;13.90;10.32;;;14.20;99.90;;;;;;5080942;28;20028;-77
2024/04/07 02:13:17;;;;;;;13.18;9.60;;;14.30;99.90;;;;;;5081068;28;20019;-77
2024/04/07 02:15:43;;;;;;;14.65;8.98;;;14.30;99.90;;;;;;5080814;28;20483;-77
2024/04/07 02:18:08;;;;;;;17.90;9.18;;;14.30;99.90;;;;;;5065142;28;20056;-77
2024/04/07 02:20:34;;;;;;;14.05;9.60;;;14.30;99.90;;;;;;5081729;28;20062;-77
2024/04/07 02:23:00;;;;;;;11.10;9.30;;;14.20;99.90;;;;;;5061657;28;20078;-77
2024/04/07 02:25:26;;;;;;;14.00;9.82;;;14.20;99.90;;;;;;5082523;28;20025;-77
2024/04/07 02:27:52;;;;;;;13.30;9.45;;;14.20;99.90;;;;;;5079058;28;20024;-77
2024/04/07 02:30:17;;;;;;;11.27;9.10;;;14.20;99.90;;;;;;5080818;28;20033;-77
2024/04/07 02:32:43;;;;;;;11.55;8.70;;;14.20;99.90;;;;;;5086305;28;20023;-77
2024/04/07 02:35:09;;;;;;;12.20;8.90;;;14.10;99.90;;;;;;5069539;28;20028;-77
2024/04/07 02:37:34;;;;;;;9.60;8.45;;;14.10;99.90;;;;;;5064756;28;20024;-77
2024/04/07 02:40:00;;;;;;;17.58;10.02;;;14.10;99.90;;;;;;5085016;28;20093;-77
2024/04/07 02:42:26;;;;;;;12.45;9.07;;;14.10;99.90;;;;;;5084584;28;20048;-77
2024/04/07 02:50:20;;;;;;;16.73;9.45;;;14.10;99.90;;;;;;5084606;28;20036;-77
2024/04/07 02:52:46;;;;;;;16.92;9.70;;;14.00;99.90;;;;;;5066622;28;20036;-77
2024/04/07 02:55:11;;;;;;;15.30;9.30;;;14.00;99.90;;;;;;5083802;28;20072;-77
2024/04/07 02:57:37;;;;;;;15.15;8.57;;;14.00;99.90;;;;;;5066970;28;20040;-77
2024/04/07 03:00:04;;;;;;;14.73;9.45;;;14.00;99.90;;;;;;5068226;28;20526;-77
2024/04/07 03:02:30;;;;;;;11.43;8.82;;;14.00;99.90;;;;;;5064664;28;20498;-77
2024/04/07 03:04:56;;;;;;;12.32;8.88;;;14.00;99.90;;;;;;5068167;28;20016;-77
2024/04/07 03:07:22;;;;;;;11.70;9.93;;;14.00;99.90;;;;;;5080136;28;20456;-77
2024/04/07 03:09:54;;;;;;;18.30;9.15;;;13.90;99.90;;;;;;5080266;28;20095;-77
2024/04/07 03:12:19;;;;;;;14.40;10.27;;;13.90;99.90;;;;;;5082234;28;20024;-77
2024/04/07 03:14:45;;;;;;;13.70;11.10;;;13.90;99.90;;;;;;5085679;28;20024;-77
2024/04/07 03:17:11;;;;;;;10.23;9.00;;;13.90;99.90;;;;;;5079606;28;20044;-77
2024/04/07 03:19:36;;;;;;;19.38;10.50;;;13.80;99.90;;;;;;5068085;28;20175;-77
2024/04/07 03:22:02;;;;;;;13.52;10.20;;;13.80;99.90;;;;;;5084544;28;20017;-77
2024/04/07 03:24:29;;;;;;;16.00;10.43;;;13.80;99.90;;;;;;5083307;28;20535;-77
2024/04/07 03:26:54;;;;;;;14.57;9.88;;;13.80;99.90;;;;;;5083843;28;20032;-77
2024/04/07 03:29:20;;;;;;;16.73;10.30;;;13.70;99.90;;;;;;5085439;28;20383;-77
2024/04/07 03:31:46;;;;;;;12.65;10.73;;;13.70;99.90;;;;;;5084373;28;20054;-77
2024/04/07 03:34:11;;;;;;;12.40;9.95;;;13.70;99.90;;;;;;5090891;28;20156;-77
2024/04/07 03:36:37;;;;;;;15.73;11.05;;;13.70;99.90;;;;;;5089077;28;20032;-77
2024/04/07 03:39:03;;;;;;;22.17;10.63;;;13.60;99.90;;;;;;5074610;28;20122;-77
2024/04/07 03:41:34;;;;;;;16.08;11.68;;;13.70;99.90;;;;;;5074374;28;20058;-76
2024/04/07 03:44:00;;;;;;;16.77;12.17;;;13.70;99.90;;;;;;5071431;28;20020;-76
2024/04/07 03:46:25;;;;;;;17.17;10.95;;;13.70;99.90;;;;;;5087189;28;20246;-76
2024/04/07 03:48:55;;;;;;;12.10;10.85;;;13.70;99.90;;;;;;5079061;28;20036;-76
2024/04/07 03:51:21;;;;;;;14.10;12.10;;;13.60;99.90;;;;;;5079436;28;20090;-76
2024/04/07 03:53:47;;;;;;;14.95;10.80;;;13.70;99.90;;;;;;5082912;28;20062;-76
2024/04/07 03:56:12;;;;;;;16.88;11.20;;;13.70;99.90;;;;;;5079940;28;20138;-76
2024/04/07 03:58:38;;;;;;;17.83;10.98;;;13.70;99.90;;;;;;5081770;28;20075;-76
2024/04/07 04:01:04;;;;;;;14.77;12.00;;;13.60;99.90;;;;;;5080454;28;20099;-76
2024/04/07 04:03:29;;;;;;;22.08;11.10;;;13.60;99.90;;;;;;5080030;28;20028;-76
2024/04/07 04:05:55;;;;;;;17.02;12.20;;;13.60;99.90;;;;;;5082115;28;20020;-76
2024/04/07 04:08:21;;;;;;;18.70;11.32;;;13.60;99.90;;;;;;5082312;28;20180;-76
2024/04/07 04:10:47;;;;;;;13.90;11.32;;;13.70;99.90;;;;;;5083683;28;20024;-76
2024/04/07 04:13:13;;;;;;;19.88;11.85;;;13.70;99.90;;;;;;5080455;28;20029;-76
2024/04/07 04:15:39;;;;;;;20.40;12.85;;;13.70;99.90;;;;;;5066179;28;20026;-76
2024/04/07 04:18:06;;;;;;;25.25;11.93;;;13.70;99.90;;;;;;5061430;28;20484;-76
2024/04/07 04:20:39;;;;;;;17.10;11.65;;;13.70;99.90;;;;;;5084571;28;20012;-76
2024/04/07 04:23:04;;;;;;;16.95;11.23;;;13.70;99.90;;;;;;5084899;28;20020;-76
2024/04/07 04:25:31;;;;;;;20.55;11.65;;;13.70;99.90;;;;;;5080787;28;20028;-76
2024/04/07 04:27:56;;;;;;;15.57;11.35;;;13.70;99.90;;;;;;5084487;28;20035;-76
2024/04/07 04:30:22;;;;;;;15.02;12.35;;;13.80;99.90;;;;;;5080575;28;20025;-76
2024/04/07 04:32:48;;;;;;;16.70;11.63;;;13.70;99.90;;;;;;5082678;28;20035;-76
2024/04/07 04:35:14;;;;;;;18.55;11.18;;;13.70;99.90;;;;;;5063267;28;20108;-76
2024/04/07 04:37:40;;;;;;;21.73;11.50;;;13.70;99.90;;;;;;5083049;28;20403;-76
2024/04/07 04:40:08;;;;;;;15.02;11.90;;;13.70;99.90;;;;;;5081613;28;20383;-76
2024/04/07 04:42:40;;;;;;;19.50;11.45;;;13.70;99.90;;;;;;5064743;28;20024;-76
2024/04/07 04:45:06;;;;;;;;;;;13.70;99.90;;;;;;5081732;28;20040;-76
2024/04/07 04:47:35;;;;;;;18.13;12.43;;;13.70;99.90;;;;;;5096453;28;19911;-76
2024/04/07 04:50:01;;;;;;;15.75;11.45;;;13.70;99.90;;;;;;5080128;28;20035;-76
2024/04/07 04:52:30;;;;;;;15.13;11.45;;;13.80;99.90;;;;;;5081963;28;20037;-76
2024/04/07 04:54:59;;;;;;;17.65;11.57;;;13.80;99.90;;;;;;5081460;28;20376;-76
2024/04/07 04:57:25;;;;;;;17.00;12.80;;;13.70;99.90;;;;;;5082434;28;20048;-76
2024/04/07 04:59:53;;;;;;;18.17;12.18;;;13.60;99.90;;;;;;5081442;28;20039;-76
2024/04/07 05:02:19;;;;;;;17.05;12.05;;;13.70;99.90;;;;;;5082253;28;20089;-76
2024/04/07 05:04:45;;;;;;;15.48;11.27;;;13.60;99.90;;;;;;5063729;28;20020;-76
2024/04/07 05:07:14;;;;;;;14.98;12.13;;;13.60;99.90;;;;;;5081482;28;20016;-76
2024/04/07 05:09:40;;;;;;;14.98;10.68;;;13.60;99.90;;;;;;5063767;28;20132;-76
2024/04/07 05:12:06;;;;;;;18.83;11.32;;;13.70;99.90;;;;;;5081234;28;20103;-76
2024/04/07 05:14:31;;;;;;;15.05;11.25;;;13.70;99.90;;;;;;5064494;28;20024;-76
2024/04/07 05:16:57;;;;;;;18.17;11.85;;;13.70;99.90;;;;;;5080680;28;20146;-76
2024/04/07 05:19:25;;;;;;;20.90;12.65;;;13.70;99.90;;;;;;5079808;28;20476;-76
2024/04/07 05:21:51;;;;;;;14.90;11.75;;;13.70;99.90;;;;;;5079919;28;20025;-76
2024/04/07 05:24:17;;;;;;;21.40;12.15;;;13.70;99.90;;;;;;5083523;28;20022;-76
2024/04/07 05:26:43;;;;;;;17.90;11.68;;;13.70;99.90;;;;;;5079748;28;20085;-76
2024/04/07 05:29:09;;;;;;;17.13;11.38;;;13.70;99.90;;;;;;5064884;28;20556;-76
2024/04/07 05:31:35;;;;;;;13.75;11.55;;;13.80;99.90;;;;;;5080258;28;20038;-76
2024/04/07 05:34:00;;;;;;;17.65;13.00;;;13.80;99.90;;;;;;5085678;28;20029;-76
2024/04/07 05:36:26;;;;;;;17.10;12.95;;;13.80;99.90;;;;;;5062881;28;20024;-76
2024/04/07 05:38:52;;;;;;;21.50;12.07;;;13.80;99.90;;;;;;5081488;28;20444;-76
2024/04/07 05:41:17;;;;;;;24.85;13.43;;;13.80;99.90;;;;;;5063290;28;20043;-76
2024/04/07 05:43:44;;;;;;;19.35;13.00;;;13.80;99.90;;;;;;5083958;28;20001;-76
2024/04/07 05:46:11;;;;;;;18.55;12.52;;;13.80;99.90;;;;;;5064716;28;20043;-76
2024/04/07 05:48:37;;;;;;;23.60;12.40;;;13.80;99.90;;;;;;5059646;28;20016;-76
2024/04/07 05:51:10;;;;;;;17.52;12.82;;;13.80;99.90;;;;;;5061602;28;20505;-76
2024/04/07 05:53:36;;;;;;;17.88;13.13;;;13.80;99.90;;;;;;5063827;28;20035;-76
2024/04/07 05:56:01;;;;;;;17.40;12.70;;;13.80;99.90;;;;;;5080287;28;20480;-76
2024/04/07 05:58:27;;;;;;;17.42;12.63;;;13.90;99.90;;;;;;5082125;28;20127;-76
2024/04/07 06:00:53;;;;;;;19.45;11.77;;;13.90;99.90;;;;;;5079302;28;20475;-76
2024/04/07 06:03:18;;;;;;;16.65;11.82;;;13.90;99.90;;;;;;5083593;28;20029;-76
2024/04/07 06:05:44;;;;;;;13.60;11.93;;;13.90;99.90;;;;;;5087608;28;20017;-76
2024/04/07 06:08:10;;;;;;;15.50;12.80;;;14.00;99.90;;;;;;5080562;28;20032;-76
2024/04/07 06:10:36;;;;;;;18.35;11.65;;;13.90;99.90;;;;;;5086068;28;20043;-76
2024/04/07 06:13:05;;;;;;;20.92;13.00;;;14.00;99.90;;;;;;5087126;28;20025;-77
2024/04/07 06:15:32;;;;;;;15.18;12.57;;;14.00;99.90;;;;;;5084328;28;20090;-76
2024/04/07 06:17:58;;;;;;;18.45;11.82;;;14.10;99.90;;;;;;5064510;28;20035;-76
2024/04/07 06:20:23;;;;;;;13.88;10.93;;;14.10;99.90;;;;;;5085292;28;20016;-76
2024/04/07 06:22:49;;;;;;;14.93;11.70;;;14.20;99.90;;;;;;5068844;28;20073;-76
2024/04/07 06:25:18;;;;;;;14.75;11.98;;;14.20;99.90;;;;;;5085405;28;20514;-76
2024/04/07 06:27:46;;;;;;;18.45;12.57;;;14.20;99.90;;;;;;5084514;28;20487;-76
2024/04/07 06:30:12;;;;;;;19.77;11.32;;;14.30;99.90;;;;;;5085017;28;20399;-76
2024/04/07 06:32:38;;;;;;;20.88;12.50;;;14.30;99.90;;;;;;5066026;28;20028;-76
2024/04/07 06:35:04;;;;;;;18.63;12.43;;;14.40;99.90;;;;;;5086745;28;20012;-76
2024/04/07 06:37:30;;;;;;;16.67;11.27;;;14.40;99.90;;;;;;5085420;28;20104;-76
2024/04/07 06:39:56;;;;;;;23.33;12.68;;;14.40;99.90;;;;;;5082983;28;20525;-76
2024/04/07 06:42:30;;;;;;;21.15;14.27;;;14.50;99.90;;;;;;5068460;28;20024;-76
2024/04/07 06:44:57;;;;;;;19.65;12.57;;;14.60;99.90;;;;;;5083472;28;20026;-77
2024/04/07 06:47:26;;;;;;;17.35;12.13;;;14.60;99.90;;;;;;5064118;28;20545;-76
2024/04/07 06:49:53;;;;;;;13.20;10.80;;;14.70;99.90;;;;;;5083120;28;20035;-76
2024/04/07 06:52:20;;;;;;;11.95;10.75;;;14.80;99.90;;;;;;5085743;28;20514;-76
2024/04/07 06:54:46;;;;;;;15.00;11.23;;;14.80;99.90;;;;;;5082994;28;20029;-76
2024/04/07 06:57:17;;;;;;;17.60;10.75;;;14.80;99.90;;;;;;5085834;28;20063;-76
2024/04/07 06:59:43;;;;;;;18.20;11.73;;;14.90;99.90;;;;;;5081172;28;20017;-76
2024/04/07 07:02:09;;;;;;;14.55;10.98;;;15.00;99.90;;;;;;5086939;28;20506;-76
2024/04/07 07:04:35;;;;;;;15.63;9.95;;;15.10;99.90;;;;;;5081471;28;20025;-76
2024/04/07 07:07:00;;;;;;;15.90;10.43;;;15.20;99.90;;;;;;5062331;28;20056;-76
2024/04/07 07:09:28;;;;;;;15.75;10.77;;;15.30;99.90;;;;;;5080322;28;20020;-76
2024/04/07 07:11:55;;;;;;;14.73;10.52;;;15.30;99.90;;;;;;5080541;28;20024;-76
2024/04/07 07:14:21;;;;;;;16.15;11.25;;;15.40;99.90;;;;;;5083132;28;20031;-76
2024/04/07 07:16:46;;;;;;;16.70;10.30;;;15.50;99.90;;;;;;5083408;28;20245;-76
2024/04/07 07:19:12;;;;;;;15.57;10.52;;;15.60;99.90;;;;;;5079860;28;20028;-76
2024/04/07 07:21:38;;;;;;;19.60;13.07;;;15.70;99.90;;;;;;5065862;28;20020;-76
2024/04/07 07:24:04;;;;;;;22.60;13.68;;;15.80;99.90;;;;;;5083557;28;20025;-76
2024/04/07 07:26:30;;;;;;;21.77;15.13;;;15.90;99.90;;;;;;5085684;28;20032;-76
2024/04/07 07:28:55;;;;;;;18.58;14.20;;;16.00;99.90;;;;;;5066596;28;20031;-76
2024/04/07 07:31:21;;;;;;;25.92;16.48;;;16.10;99.90;;;;;;5082423;28;20494;-76
2024/04/07 07:33:47;;;;;;;24.90;16.27;;;16.20;99.90;;;;;;5085480;28;20387;-76
2024/04/07 07:36:12;;;;;;;27.83;17.08;;;16.30;95.40;;;;;;5083338;28;20391;-76
2024/04/07 07:38:38;;;;;;;26.05;18.10;;;16.40;93.90;;;;;;5065651;28;20025;-76
2024/04/07 07:41:06;;;;;;;27.88;19.98;;;16.40;98.90;;;;;;5082868;28;20020;-76
2024/04/07 07:43:32;;;;;;;28.80;19.67;;;16.40;99.90;;;;;;5080220;28;20021;-76
2024/04/07 07:45:58;;;;;;;28.23;19.40;;;16.50;95.90;;;;;;5065813;28;20084;-76
2024/04/07 07:48:23;;;;;;;32.38;19.45;;;16.50;99.90;;;;;;5063116;28;20497;-76
2024/04/07 07:50:49;;;;;;;32.10;19.63;;;16.50;98.70;;;;;;5083094;28;20020;-76
2024/04/07 07:53:15;;;;;;;29.98;21.08;;;16.60;98.70;;;;;;5083207;28;20066;-76
2024/04/07 07:55:40;;;;;;;26.90;19.88;;;16.60;99.90;;;;;;5065595;28;20502;-76
2024/04/07 07:58:06;;;;;;;33.58;21.38;;;16.60;99.90;;;;;;5082126;28;20048;-76
2024/04/07 08:00:32;;;;;;;32.90;23.23;;;16.60;99.90;;;;;;5066389;28;20024;-76
2024/04/07 08:02:59;;;;;;;31.90;21.10;;;16.60;99.90;;;;;;5083471;28;20024;-76
2024/04/07 08:05:24;;;;;;;32.10;22.70;;;16.60;99.90;;;;;;5092505;28;20095;-76
2024/04/07 08:07:50;;;;;;;35.20;22.58;;;16.60;99.90;;;;;;5092420;28;20187;-76
2024/04/07 08:10:16;;;;;;;36.72;23.30;;;16.60;99.90;;;;;;5092195;28;20024;-76
2024/04/07 08:12:43;;;;;;;35.40;24.38;;;16.60;99.90;;;;;;5089366;28;20111;-75
2024/04/07 08:15:11;;;;;;;33.33;23.95;;;16.60;99.90;;;;;;5066130;28;20372;-76
2024/04/07 08:17:37;;;;;;;33.50;24.27;;;16.60;99.90;;;;;;5063723;28;20024;-76
2024/04/07 08:20:05;;;;;;;37.47;25.45;;;16.60;99.90;;;;;;5083567;28;20016;-76
2024/04/07 08:22:30;;;;;;;34.35;24.17;;;16.60;99.90;;;;;;5082040;28;20108;-76
2024/04/07 08:24:56;;;;;;;37.80;25.67;;;16.70;99.90;;;;;;5083022;28;20472;-76
2024/04/07 08:27:22;;;;;;;37.13;25.55;;;16.60;99.90;;;;;;5081245;28;20058;-76
2024/04/07 08:29:51;;;;;;;38.00;24.98;;;16.60;99.90;;;;;;5062586;28;20093;-76
2024/04/07 08:32:17;;;;;;;37.53;25.08;;;16.60;99.90;;;;;;5082400;28;20488;-76
2024/04/07 08:34:42;;;;;;;37.30;25.75;;;16.70;99.90;;;;;;5083123;28;20030;-76
2024/04/07 08:37:09;;;;;;;37.42;26.33;;;16.70;99.90;;;;;;5079186;28;20090;-76
2024/04/07 08:39:35;;;;;;;36.28;25.00;;;16.80;99.90;;;;;;5065871;28;20036;-76
2024/04/07 08:42:01;;;;;;;36.53;25.40;;;16.70;99.90;;;;;;5083773;28;20028;-76
2024/04/07 08:44:27;;;;;;;40.85;25.65;;;16.80;99.90;;;;;;5080354;28;20024;-76
2024/04/07 08:46:54;;;;;;;38.22;27.00;;;16.80;99.90;;;;;;5081644;28;20020;-76
2024/04/07 08:49:21;;;;;;;39.90;27.65;;;16.80;99.90;;;;;;5065164;28;20028;-76
2024/04/07 08:51:48;;;;;;;40.65;25.92;;;16.90;99.90;;;;;;5062693;28;20384;-76
2024/04/07 08:54:16;;;;;;;40.13;26.13;;;17.00;99.90;;;;;;5083877;28;20028;-75
2024/04/07 08:56:43;;;;;;;42.15;28.27;;;17.00;99.90;;;;;;5080575;28;20028;-76
2024/04/07 08:59:11;;;;;;;36.53;27.80;;;17.00;99.90;;;;;;5065150;28;20040;-76
2024/04/07 09:01:45;;;;;;;42.15;28.33;;;17.10;99.90;;;;;;5079794;28;20023;-76
2024/04/07 09:04:14;;;;;;;40.45;26.80;;;17.10;99.90;;;;;;5061926;28;20032;-76
2024/04/07 09:06:41;;;;;;;40.50;26.45;;;17.20;99.90;;;;;;5065337;28;20021;-75
2024/04/07 09:09:06;;;;;;;36.08;25.83;;;17.20;93.10;;;;;;5078983;28;20040;-77
2024/04/07 09:11:37;;;;;;;40.80;28.13;;;17.20;99.40;;;;;;5080129;28;20024;-77
2024/04/07 09:14:06;;;;;;;38.30;26.73;;;17.10;99.90;;;;;;5079855;28;20020;-77
2024/04/07 09:16:32;;;;;;;34.40;25.40;;;17.20;99.90;;;;;;5080107;28;20417;-77
2024/04/07 09:18:58;;;;;;;40.13;25.65;;;17.30;99.90;;;;;;5079838;28;20028;-77
2024/04/07 09:21:24;;;;;;;43.47;27.30;;;17.40;99.90;;;;;;5081969;28;20043;-77
2024/04/07 09:23:50;;;;;;;36.05;26.55;;;17.40;99.90;;;;;;5063719;28;20019;-77
2024/04/07 09:26:19;;;;;;;34.65;28.25;;;17.50;96.40;;;;;;5081010;28;20070;-77
2024/04/07 09:28:45;;;;;;;38.17;26.60;;;17.40;99.90;;;;;;5064380;28;20082;-77
2024/04/07 09:31:10;;;;;;;44.67;28.13;;;17.40;97.10;;;;;;5066165;28;20032;-77
2024/04/07 09:33:37;;;;;;;39.42;25.80;;;17.50;94.20;;;;;;5081794;28;20036;-77
2024/04/07 09:36:03;;;;;;;33.28;25.55;;;17.50;99.90;;;;;;5081554;28;20028;-77
2024/04/07 09:38:30;;;;;;;37.67;25.05;;;17.70;99.90;;;;;;5079062;28;20035;-77
2024/04/07 09:40:57;;;;;;;32.38;23.80;;;17.90;99.90;;;;;;5080195;28;20062;-77
2024/04/07 09:43:28;;;;;;;39.40;24.65;;;18.00;99.90;;;;;;5076786;28;20134;-77
2024/04/07 09:45:54;;;;;;;43.05;26.40;;;18.00;99.90;;;;;;5081877;28;20028;-77
2024/04/07 09:48:23;;;;;;;32.55;23.50;;;18.10;99.90;;;;;;5080839;28;20032;-77
2024/04/07 09:51:04;;;;;;;36.80;23.85;;;18.10;95.60;;;;;;5081847;28;20109;-77
2024/04/07 09:53:58;;;;;;;33.47;21.45;;;18.10;68.40;;;;;;5082534;28;20024;-77
2024/04/07 09:56:30;;;;;;;32.42;22.73;;;18.20;75.40;;;;;;5082056;28;20028;-77
2024/04/07 09:58:57;;;;;;;33.30;22.55;;;18.30;68.70;;;;;;5061576;28;20044;-77
2024/04/07 10:01:24;;;;;;;35.55;23.25;;;18.30;74.90;;;;;;5082512;28;20051;-77
2024/04/07 10:03:51;;;;;;;32.08;22.90;;;18.30;75.90;;;;;;5062385;28;20033;-77
2024/04/07 10:06:19;;;;;;;30.55;23.05;;;18.40;90.30;;;;;;5061519;28;20077;-77
2024/04/07 10:08:45;;;;;;;29.17;22.17;;;18.50;69.40;;;;;;5083429;28;20028;-77
2024/04/07 10:11:19;;;;;;;33.72;23.92;;;18.50;54.50;;;;;;5081761;28;20033;-77
2024/04/07 10:13:46;;;;;;;32.08;21.73;;;18.50;63.80;;;;;;5079825;28;20498;-77
2024/04/07 10:16:15;;;;;;;34.08;22.90;;;18.50;55.90;;;;;;5082136;28;20078;-77
2024/04/07 10:18:42;;;;;;;37.50;23.80;;;18.50;98.50;;;;;;5076671;28;20028;-77
2024/04/07 10:21:09;;;;;;;30.77;22.90;;;18.70;45.90;;;;;;5081916;28;20040;-77
2024/04/07 10:23:35;;;;;;;32.92;22.40;;;18.70;57.60;;;;;;5080243;28;20097;-77
2024/04/07 10:26:03;;;;;;;27.83;21.50;;;18.90;50.70;;;;;;5081476;28;20067;-77
2024/04/07 10:28:47;;;;;;;35.72;23.05;;;19.00;80.40;;;;;;5080624;28;20165;-77
2024/04/07 10:31:23;;;;;;;28.17;20.95;;;19.10;63.80;;;;;;5079497;28;20035;-77
2024/04/07 10:33:51;;;;;;;29.40;20.45;;;19.10;59.50;;;;;;5081493;28;20037;-77
2024/04/07 10:36:20;;;;;;;33.38;20.08;;;19.20;12.90;;;;;;5080353;28;20028;-77
2024/04/07 10:38:55;;;;;;;26.02;19.55;;;19.30;1.00;;;;;;5078492;28;20024;-77
2024/04/07 10:41:28;;;;;;;29.40;19.45;;;19.40;1.00;;;;;;5062295;28;20077;-77
2024/04/07 10:43:55;;;;;;;26.33;18.95;;;19.30;23.20;;;;;;5082106;28;20032;-77
2024/04/07 10:46:22;;;;;;;30.38;18.75;;;19.50;26.00;;;;;;5061832;28;20029;-77
2024/04/07 10:48:49;;;;;;;27.83;18.80;;;19.60;1.00;;;;;;5080214;28;20025;-77
2024/04/07 10:51:18;;;;;;;32.97;19.23;;;19.70;1.00;;;;;;5084457;28;20066;-77
2024/04/07 10:54:07;;;;;;;26.70;16.90;;;19.80;1.00;;;;;;5083871;28;20103;-77
2024/04/07 10:56:33;;;;;;;26.88;17.23;;;19.90;1.00;;;;;;5084078;28;20020;-77
2024/04/07 10:59:01;;;;;;;32.45;16.10;;;20.00;6.50;;;;;;5084892;28;20043;-77
2024/04/07 11:01:27;;;;;;;25.00;16.25;;;20.10;1.00;;;;;;5083598;28;20078;-77
2024/04/07 11:03:58;;;;;;;21.88;15.50;;;20.30;1.00;;;;;;5085355;28;20468;-77
2024/04/07 11:06:27;;;;;;;22.80;16.07;;;20.40;1.00;;;;;;5082428;28;20028;-77
2024/04/07 11:08:54;;;;;;;20.17;14.70;;;20.50;1.00;;;;;;5086004;28;20109;-77
2024/04/07 11:11:22;;;;;;;23.20;13.65;;;20.40;1.00;;;;;;5066777;28;20032;-77
2024/04/07 11:13:51;;;;;;;21.17;13.20;;;20.50;1.00;;;;;;5083331;28;20460;-77
2024/04/07 11:16:17;;;;;;;20.02;12.23;;;20.60;99.90;;;;;;5084847;28;20035;-77
2024/04/07 11:18:43;;;;;;;13.57;9.05;;;20.60;1.00;;;;;;5064022;28;20368;-77
2024/04/07 11:21:10;;;;;;;10.38;5.78;;;20.70;99.90;;;;;;5081251;28;20082;-77
2024/04/07 11:23:38;;;;;;;16.15;5.68;;;20.80;99.90;;;;;;5085653;28;20047;-77
2024/04/07 11:26:04;;;;;;;14.73;6.15;;;21.00;99.90;;;;;;5064199;28;20102;-77
2024/04/07 11:28:29;;;;;;;9.27;5.43;;;21.10;99.90;;;;;;5085542;28;20067;-77
2024/04/07 11:30:56;;;;;;;11.95;6.05;;;21.10;99.90;;;;;;5082053;28;20048;-77
2024/04/07 11:33:25;;;;;;;8.82;5.60;;;21.20;99.90;;;;;;5085433;28;20028;-77
2024/04/07 11:35:51;;;;;;;13.02;6.18;;;21.30;99.90;;;;;;5082035;28;20024;-77
2024/04/07 11:38:17;;;;;;;14.18;6.05;;;21.40;99.90;;;;;;5086799;28;20483;-77
2024/04/07 11:40:43;;;;;;;9.35;6.00;;;21.40;99.90;;;;;;5082514;28;20533;-77
2024/04/07 11:43:09;;;;;;;10.32;6.43;;;21.50;99.90;;;;;;5066225;28;20024;-77
2024/04/07 11:45:34;;;;;;;10.13;6.45;;;21.60;99.90;;;;;;5083215;28;20020;-77
2024/04/07 11:48:02;;;;;;;12.88;7.10;;;21.70;47.00;;;;;;5061619;28;20030;-77
2024/04/07 11:50:29;;;;;;;19.35;6.95;;;21.60;45.40;;;;;;5083366;28;20097;-77
2024/04/07 11:52:56;;;;;;;13.27;7.43;;;21.70;99.90;;;;;;5081638;28;20434;-77
2024/04/07 11:55:21;;;;;;;9.30;6.43;;;21.80;99.90;;;;;;5082882;28;20119;-77
2024/04/07 11:57:47;;;;;;;9.95;6.22;;;22.00;99.90;;;;;;5083832;28;20118;-77
2024/04/07 12:00:13;;;;;;;10.73;6.88;;;22.10;99.90;;;;;;5063878;28;20024;-77
2024/04/07 12:02:39;;;;;;;9.70;6.55;;;22.30;99.90;;;;;;5084463;28;20510;-77
2024/04/07 12:05:07;;;;;;;14.07;7.63;;;22.40;8.30;;;;;;5063397;28;20017;-77
2024/04/07 12:07:34;;;;;;;11.25;7.78;;;22.40;1.00;;;;;;5084857;28;20028;-77
2024/04/07 12:10:00;;;;;;;14.77;8.35;;;22.50;9.80;;;;;;5084890;28;20106;-77
2024/04/07 12:12:27;;;;;;;14.07;7.32;;;22.70;99.90;;;;;;5079361;28;20049;-77
2024/04/07 12:14:52;;;;;;;14.23;7.50;;;22.80;21.30;;;;;;5081394;28;20024;-77
2024/04/07 12:17:22;;;;;;;9.85;7.18;;;22.90;1.00;;;;;;5082431;28;20421;-77
2024/04/07 12:19:48;;;;;;;12.27;8.00;;;23.00;1.00;;;;;;5066221;28;20107;-77
2024/04/07 12:22:19;;;;;;;15.18;7.53;;;23.00;1.00;;;;;;5081782;28;20428;-77
2024/04/07 12:24:48;;;;;;;14.77;8.38;;;23.10;99.90;;;;;;5084131;28;20016;-77
2024/04/07 12:27:14;;;;;;;15.52;8.40;;;23.10;99.90;;;;;;5081104;28;20021;-76
2024/04/07 12:29:40;;;;;;;17.08;9.05;;;23.30;1.00;;;;;;5083961;28;20513;-77
2024/04/07 12:32:09;;;;;;;15.32;9.82;;;23.50;1.00;;;;;;5081684;28;20480;-77
2024/04/07 12:34:35;;;;;;;16.20;9.73;;;23.50;99.90;;;;;;5083720;28;20263;-77